createdAt,value
2023-08-14T00:02:06.384Z,3.22
2023-08-14T00:07:08.640Z,2.53
2023-08-14T00:12:10.866Z,2.80
2023-08-14T00:17:13.083Z,2.63
2023-08-14T00:22:15.548Z,3.28
2023-08-14T00:27:17.899Z,2.72
2023-08-14T00:32:20.299Z,3.10
2023-08-14T00:37:24.410Z,2.55
2023-08-14T00:42:26.568Z,2.97
2023-08-14T00:47:28.770Z,3.08
2023-08-14T00:52:33.336Z,2.78
2023-08-14T00:57:37.067Z,2.78
2023-08-14T01:02:39.977Z,2.30
2023-08-14T01:07:42.133Z,2.45
2023-08-14T01:12:54.616Z,2.30
2023-08-14T01:18:03.082Z,2.50
2023-08-14T01:23:18.790Z,2.10
2023-08-14T01:28:21.752Z,2.47
2023-08-14T01:33:23.971Z,1.92
2023-08-14T01:38:48.665Z,2.00
2023-08-14T01:43:56.245Z,2.15
2023-08-14T01:49:00.686Z,2.00
2023-08-14T01:54:03.032Z,1.80
2023-08-14T01:59:05.185Z,1.75
2023-08-14T02:04:10.332Z,1.52
2023-08-14T02:09:12.653Z,1.58
2023-08-14T02:14:14.771Z,1.70
2023-08-14T02:19:17.301Z,1.15
2023-08-14T02:24:19.520Z,0.90
2023-08-14T02:29:22.464Z,1.20
2023-08-14T02:34:44.204Z,1.00
2023-08-14T02:39:47.147Z,0.80
2023-08-14T02:44:49.706Z,1.10
2023-08-14T02:49:52.249Z,1.23
2023-08-14T02:54:54.473Z,1.05
2023-08-14T02:59:56.690Z,1.30
2023-08-14T03:04:58.905Z,1.10
2023-08-14T03:10:01.157Z,1.58
2023-08-14T03:15:03.844Z,1.40
2023-08-14T03:20:07.464Z,1.40
2023-08-14T03:25:10.010Z,1.88
2023-08-14T03:30:14.095Z,1.50
2023-08-14T03:35:16.423Z,1.67
2023-08-14T03:40:18.825Z,1.50
2023-08-14T03:45:21.558Z,1.60
2023-08-14T03:50:23.876Z,1.40
2023-08-14T03:55:26.121Z,1.50
2023-08-14T04:00:28.349Z,1.60
2023-08-14T04:05:30.554Z,1.80
2023-08-14T04:10:33.360Z,1.80
2023-08-14T04:15:35.552Z,1.75
2023-08-14T04:20:37.753Z,2.30
2023-08-14T04:25:40.037Z,2.20
2023-08-14T04:30:42.469Z,2.65
2023-08-14T04:35:44.818Z,3.00
2023-08-14T04:40:47.061Z,3.30
2023-08-14T04:45:49.569Z,3.00
2023-08-14T04:50:52.374Z,2.83
2023-08-14T04:55:54.826Z,2.47
2023-08-14T05:00:57.542Z,3.13
2023-08-14T05:05:59.785Z,3.03
2023-08-14T05:11:03.260Z,3.97
2023-08-14T05:16:08.866Z,4.30
2023-08-14T05:21:13.153Z,4.20
2023-08-14T05:26:15.393Z,3.67
2023-08-14T05:31:17.649Z,4.05
2023-08-14T05:36:19.858Z,4.20
2023-08-14T05:41:23.068Z,4.10
2023-08-14T05:46:25.700Z,3.30
2023-08-14T05:51:28.017Z,3.33
2023-08-14T05:56:30.178Z,3.55
2023-08-14T06:01:32.499Z,3.78
2023-08-14T06:06:35.028Z,4.00
2023-08-14T06:11:37.157Z,4.18
2023-08-14T06:16:39.375Z,4.60
2023-08-14T06:21:41.797Z,4.25
2023-08-14T06:26:43.926Z,4.55
2023-08-14T06:31:46.116Z,5.43
2023-08-14T06:36:48.308Z,5.05
2023-08-14T06:41:50.594Z,5.15
2023-08-14T06:46:54.696Z,4.95
2023-08-14T06:51:57.004Z,5.32
2023-08-14T06:56:59.677Z,4.05
2023-08-14T07:02:02.430Z,3.97
2023-08-14T07:07:04.589Z,4.32
2023-08-14T07:12:06.999Z,4.63
2023-08-14T07:17:09.300Z,4.22
2023-08-14T07:22:11.529Z,7.15
2023-08-14T07:27:13.628Z,3.42
2023-08-14T07:32:16.174Z,4.15
2023-08-14T07:37:18.671Z,3.85
2023-08-14T07:42:21.202Z,4.00
2023-08-14T07:47:23.974Z,3.58
2023-08-14T07:52:28.716Z,3.78
2023-08-14T07:57:31.025Z,3.85
2023-08-14T08:02:33.325Z,4.10
2023-08-14T08:07:35.663Z,3.70
2023-08-14T08:12:37.997Z,4.13
2023-08-14T08:17:40.650Z,4.50
2023-08-14T08:22:42.946Z,4.80
2023-08-14T08:27:45.092Z,4.20
2023-08-14T08:32:47.361Z,4.85
2023-08-14T08:37:49.525Z,4.40
2023-08-14T08:42:52.702Z,5.60
2023-08-14T08:47:57.817Z,3.70
2023-08-14T08:53:00.502Z,3.35
2023-08-14T08:58:03.425Z,3.50
2023-08-14T09:03:06.016Z,3.50
2023-08-14T09:08:09.912Z,2.88
2023-08-14T09:18:19.234Z,4.00
2023-08-14T09:23:21.634Z,4.10
2023-08-14T09:28:23.773Z,4.07
2023-08-14T09:33:26.088Z,4.00
2023-08-14T09:38:28.627Z,3.70
2023-08-14T09:43:32.475Z,3.25
2023-08-14T09:48:45.902Z,3.53
2023-08-14T09:53:51.826Z,3.63
2023-08-14T09:58:56.090Z,3.50
2023-08-14T10:03:58.741Z,3.00
2023-08-14T10:09:03.709Z,3.33
2023-08-14T10:14:07.651Z,3.65
2023-08-14T10:19:13.835Z,3.60
2023-08-14T10:24:16.700Z,3.70
2023-08-14T10:29:19.157Z,4.00
2023-08-14T10:34:22.716Z,4.70
2023-08-14T10:39:36.143Z,5.35
2023-08-14T10:44:38.637Z,4.20
2023-08-14T10:49:49.780Z,4.47
2023-08-14T10:54:53.379Z,4.13
2023-08-14T10:59:57.659Z,5.38
2023-08-14T11:05:13.623Z,5.22
2023-08-14T11:10:16.362Z,6.13
2023-08-14T11:15:21.526Z,5.40
2023-08-14T11:20:26.454Z,5.22
2023-08-14T11:25:28.892Z,5.35
2023-08-14T11:30:36.007Z,4.78
2023-08-14T11:35:38.334Z,4.50
2023-08-14T11:40:43.742Z,4.60
2023-08-14T11:45:46.111Z,4.80
2023-08-14T11:50:48.784Z,5.20
2023-08-14T11:55:51.412Z,5.78
2023-08-14T12:00:53.954Z,5.85
2023-08-14T12:06:05.184Z,6.60
2023-08-14T12:11:08.485Z,5.93
2023-08-14T12:16:17.781Z,5.10
2023-08-14T12:21:21.536Z,7.87
2023-08-14T12:26:24.018Z,5.63
2023-08-14T12:31:26.262Z,5.10
2023-08-14T12:36:28.572Z,5.30
2023-08-14T12:41:31.215Z,5.63
2023-08-14T12:46:33.594Z,6.35
2023-08-14T12:51:36.960Z,5.82
2023-08-14T12:56:39.435Z,5.80
2023-08-14T13:01:47.267Z,5.45
2023-08-14T13:06:51.030Z,5.80
2023-08-14T13:11:53.329Z,6.18
2023-08-14T13:16:55.667Z,5.63
2023-08-14T13:21:58.015Z,6.20
2023-08-14T13:27:08.625Z,6.68
2023-08-14T13:32:12.059Z,5.70
2023-08-14T13:37:14.204Z,5.47
2023-08-14T13:42:16.621Z,8.77
2023-08-14T13:47:19.164Z,5.70
2023-08-14T13:52:21.533Z,5.20
2023-08-14T13:57:23.807Z,5.07
2023-08-14T14:02:26.018Z,5.15
2023-08-14T14:07:32.077Z,6.30
2023-08-14T14:12:39.230Z,5.55
2023-08-14T14:17:41.713Z,5.43
2023-08-14T14:22:44.246Z,4.55
2023-08-14T14:27:46.494Z,4.90
2023-08-14T14:32:48.691Z,5.15
2023-08-14T14:37:50.826Z,4.60
2023-08-14T14:42:53.194Z,5.00
2023-08-14T14:47:55.375Z,5.55
2023-08-14T14:52:58.230Z,5.20
2023-08-14T14:58:00.386Z,5.82
2023-08-14T15:03:02.952Z,6.47
2023-08-14T15:08:05.318Z,6.00
2023-08-14T15:13:07.582Z,6.10
2023-08-14T15:18:10.217Z,5.45
2023-08-14T15:23:12.618Z,5.97
2023-08-14T15:28:14.853Z,6.53
2023-08-14T15:33:16.990Z,5.70
2023-08-14T15:38:19.429Z,6.10
2023-08-14T15:43:21.924Z,5.53
2023-08-14T15:48:24.131Z,4.63
2023-08-14T15:53:26.352Z,6.40
2023-08-14T15:58:28.556Z,5.65
2023-08-14T16:03:31.197Z,5.05
2023-08-14T16:08:33.512Z,5.57
2023-08-14T16:13:35.650Z,5.65
2023-08-14T16:18:38.138Z,5.40
2023-08-14T16:23:40.376Z,5.80
2023-08-14T16:28:42.653Z,5.70
2023-08-14T16:33:46.596Z,5.63
2023-08-14T16:38:48.809Z,6.13
2023-08-14T16:43:51.074Z,6.35
2023-08-14T16:48:53.638Z,6.88
2023-08-14T16:53:56.361Z,7.13
2023-08-14T16:58:58.586Z,6.80
2023-08-14T17:04:00.939Z,6.47
2023-08-14T17:09:03.210Z,6.95
2023-08-14T17:14:05.516Z,6.38
2023-08-14T17:19:07.739Z,6.85
2023-08-14T17:24:10.175Z,6.70
2023-08-14T17:29:12.386Z,7.35
2023-08-14T17:34:15.496Z,8.95
2023-08-14T17:39:17.796Z,6.50
2023-08-14T17:44:19.910Z,8.45
2023-08-14T17:49:22.124Z,7.90
2023-08-14T17:54:24.392Z,8.88
2023-08-14T17:59:26.552Z,10.23
2023-08-14T18:04:28.773Z,11.35
2023-08-14T18:09:30.840Z,8.13
2023-08-14T18:14:32.983Z,7.57
2023-08-14T18:19:35.144Z,8.40
2023-08-14T18:24:37.447Z,8.57
2023-08-14T18:29:39.654Z,8.77
2023-08-14T18:34:43.983Z,9.05
2023-08-14T18:39:46.200Z,8.18
2023-08-14T18:44:48.296Z,9.48
2023-08-14T18:49:50.471Z,9.40
2023-08-14T18:54:52.549Z,8.90
2023-08-14T18:59:54.685Z,9.10
2023-08-14T19:04:57.210Z,9.20
2023-08-14T19:09:59.551Z,7.90
2023-08-14T19:15:01.666Z,8.52
2023-08-14T19:20:06.152Z,8.80
2023-08-14T19:25:09.752Z,8.20
2023-08-14T19:30:12.538Z,9.15
2023-08-14T19:35:14.639Z,7.90
2023-08-14T19:40:16.825Z,7.22
2023-08-14T19:45:18.997Z,7.72
2023-08-14T19:50:21.227Z,7.20
2023-08-14T19:55:23.493Z,6.50
2023-08-14T20:00:26.282Z,8.00
2023-08-14T20:05:28.706Z,12.23
2023-08-14T20:10:30.817Z,6.28
2023-08-14T20:15:35.942Z,6.07
2023-08-14T20:20:41.909Z,6.05
2023-08-14T20:25:46.368Z,5.60
2023-08-14T20:30:48.622Z,5.15
2023-08-14T20:35:50.919Z,5.38
2023-08-14T20:40:55.687Z,5.47
2023-08-14T20:45:57.965Z,6.10
2023-08-14T20:51:03.086Z,4.72
2023-08-14T20:56:05.533Z,4.97
2023-08-14T21:01:07.612Z,5.35
2023-08-14T21:06:09.762Z,5.35
2023-08-14T21:11:15.183Z,5.70
2023-08-14T21:16:17.508Z,5.20
2023-08-14T21:21:20.702Z,6.72
2023-08-14T21:26:22.784Z,6.55
2023-08-14T21:31:24.942Z,5.30
2023-08-14T21:36:27.237Z,5.85
2023-08-14T21:41:29.409Z,8.07
2023-08-14T21:46:34.251Z,5.90
2023-08-14T21:51:37.453Z,5.68
2023-08-14T21:56:39.772Z,5.07
2023-08-14T22:01:43.983Z,5.95
2023-08-14T22:06:46.400Z,5.65
2023-08-14T22:11:48.566Z,6.45
2023-08-14T22:16:51.112Z,5.97
2023-08-14T22:21:53.203Z,6.13
2023-08-14T22:26:55.404Z,5.65
2023-08-14T22:31:57.605Z,6.80
2023-08-14T22:36:59.760Z,5.90
2023-08-14T22:42:01.835Z,6.75
2023-08-14T22:47:03.961Z,6.15
2023-08-14T22:52:06.255Z,6.32
2023-08-14T22:57:08.483Z,6.07
2023-08-14T23:02:10.771Z,6.20
2023-08-14T23:07:12.842Z,5.80
2023-08-14T23:12:14.914Z,5.95
2023-08-14T23:17:17.311Z,5.32
2023-08-14T23:22:19.437Z,5.75
2023-08-14T23:27:21.800Z,5.80
2023-08-14T23:32:24.050Z,5.30
2023-08-14T23:37:26.878Z,5.68
2023-08-14T23:42:29.060Z,5.90
2023-08-14T23:47:31.220Z,5.20
2023-08-14T23:52:33.489Z,5.45
2023-08-14T23:57:35.583Z,5.43
